D/T METAR WX W/DIR W/SPE G/SPE TEMP DEWP
16/01/19 02:50 EGYM 160250Z 21014KT 9999 FEW024 BKN030 08/06 Q1008 BLU SSW (210°) 16.1mph 8°C 6°C
16/01/19 01:50 EGYM 160150Z 22014KT 9999 BKN028 08/05 Q1009 BLU SW (220°) 16.1mph 8°C 5°C
16/01/19 00:50 EGYM 160050Z 21014KT 9999 BKN028 08/05 Q1010 BLU SSW (210°) 16.1mph 8°C 5°C
15/01/19 23:50 EGYM 152350Z 22013KT 9999 BKN030 08/06 Q1010 BLU SW (220°) 15.0mph 8°C 6°C
15/01/19 22:50 EGYM 152250Z 21013KT 9999 BKN032 08/06 Q1011 BLU SSW (210°) 15.0mph 8°C 6°C
15/01/19 21:50 EGYM 152150Z 22013KT 9999 BKN033 08/06 Q1012 BLU SW (220°) 15.0mph 8°C 6°C
15/01/19 20:50 EGYM 152050Z 22012KT 9999 BKN035 08/06 Q1012 BLU SW (220°) 13.8mph 8°C 6°C
15/01/19 19:50 EGYM 151950Z 22014KT 9999 FEW030 BKN035 08/06 Q1013 BLU SW (220°) 16.1mph 8°C 6°C
15/01/19 18:50 EGYM 151850Z 22013KT 9999 BKN033 08/06 Q1013 BLU SW (220°) 15.0mph 8°C 6°C
15/01/19 17:50 EGYM 151750Z 22009KT 9999 BKN035 08/06 Q1014 BLU SW (220°) 10.4mph 8°C 6°C
15/01/19 16:50 EGYM 151650Z 21008KT 9999 BKN040 07/05 Q1014 BLU NOSIG SSW (210°) 9.2mph 7°C 5°C
15/01/19 15:50 EGYM 151550Z 23011KT 9999 FEW030 SCT200 BKN250 08/05 Q1015 BLU NOSIG SW (230°) 12.7mph 8°C 5°C
15/01/19 14:50 EGYM 151450Z 24013KT 9999 FEW015 BKN200 09/05 Q1015 BLU NOSIG WSW (240°) 15.0mph 9°C 5°C
15/01/19 13:50 EGYM 151350Z 24015KT 9999 FEW015 SCT200 10/06 Q1015 BLU NOSIG WSW (240°) 17.3mph 10°C 6°C
15/01/19 12:50 EGYM 151250Z 25016KT CAVOK 09/06 Q1016 BLU NOSIG WSW (250°) 18.4mph 9°C 6°C
15/01/19 11:50 EGYM 151150Z 24012KT CAVOK 09/06 Q1016 BLU NOSIG WSW (240°) 13.8mph 9°C 6°C
15/01/19 10:50 EGYM 151050Z 24011KT CAVOK 08/05 Q1017 BLU NOSIG WSW (240°) 12.7mph 8°C 5°C
15/01/19 09:50 EGYM 150950Z 23012KT 9999 SCT035 06/04 Q1017 BLU NOSIG SW (230°) 13.8mph 6°C 4°C
15/01/19 08:50 EGYM 150850Z 23013KT 9999 SCT035 SCT200 05/03 Q1017 BLU NOSIG SW (230°) 15.0mph 5°C 3°C
15/01/19 07:50 EGYM 150750Z 23009KT 9999 BKN035 05/04 Q1017 BLU NOSIG SW (230°) 10.4mph 5°C 4°C
15/01/19 06:50 EGYM 150650Z 24010KT 9999 OVC035 05/03 Q1018 BLU NOSIG WSW (240°) 11.5mph 5°C 3°C
15/01/19 05:50 EGYM 150550Z 24010KT 9999 BKN035 04/03 Q1018 BLU WSW (240°) 11.5mph 4°C 3°C
15/01/19 04:50 EGYM 150450Z 24008KT CAVOK 02/01 Q1018 BLU WSW (240°) 9.2mph 2°C 1°C
15/01/19 03:50 EGYM 150350Z 21008KT CAVOK 02/01 Q1019 BLU SSW (210°) 9.2mph 2°C 1°C
15/01/19 02:50 EGYM 150250Z 21008KT CAVOK 03/01 Q1019 BLU SSW (210°) 9.2mph 3°C 1°C
15/01/19 01:50 EGYM 150150Z 25010KT CAVOK 03/02 Q1020 BLU WSW (250°) 11.5mph 3°C 2°C
15/01/19 00:50 EGYM 150050Z 24009KT CAVOK 03/02 Q1020 BLU WSW (240°) 10.4mph 3°C 2°C
14/01/19 23:50 EGYM 142350Z 26010KT 9999 FEW040 SCT050 05/03 Q1020 BLU W (260°) 11.5mph 5°C 3°C
14/01/19 22:50 EGYM 142250Z 26009KT CAVOK 03/03 Q1020 BLU W (260°) 10.4mph 3°C 3°C
14/01/19 21:50 EGYM 142150Z 25008KT CAVOK 02/01 Q1021 BLU WSW (250°) 9.2mph 2°C 1°C
14/01/19 20:50 EGYM 142050Z 24004KT 9999 FEW030 BKN050 03/03 Q1021 BLU WSW (240°) 4.6mph 3°C 3°C
14/01/19 19:50 EGYM 141950Z 20004KT 9999 FEW030 03/02 Q1021 BLU SSW (200°) 4.6mph 3°C 2°C
14/01/19 18:50 EGYM 141850Z 21003KT CAVOK 01/M00 Q1021 BLU SSW (210°) 3.5mph 1°C 0°C
14/01/19 17:50 EGYM 141750Z 22002KT CAVOK 03/02 Q1021 BLU SW (220°) 2.3mph 3°C 2°C
14/01/19 16:50 EGYM 141650Z 29003KT CAVOK 04/02 Q1021 BLU NOSIG WNW (290°) 3.5mph 4°C 2°C
14/01/19 15:50 EGYM 141550Z 29005KT 9999 BKN045 SCT200 06/03 Q1021 BLU NOSIG WNW (290°) 5.8mph 6°C 3°C
14/01/19 14:50 EGYM 141450Z 31008KT 9999 FEW015 BKN045 07/04 Q1020 BLU TEMPO SCT018 WHT NW (310°) 9.2mph 7°C 4°C
14/01/19 13:50 EGYM 141350Z 29005KT 9999 FEW015 BKN040 07/04 Q1020 BLU TEMPO -SHRA SCT018 WHT WNW (290°) 5.8mph 7°C 4°C
14/01/19 12:50 EGYM 141250Z 31009KT 9999 FEW015 SCT040 06/03 Q1020 BLU TEMPO -SHRA SCT015 WHT NW (310°) 10.4mph 6°C 3°C
14/01/19 11:50 EGYM 141150Z 33006KT 9999 VCSH SCT015 SCT040 07/04 Q1019 WHT NOSIG VCSH NNW (330°) 6.9mph 7°C 4°C
14/01/19 10:50 EGYM 141050Z 31009KT 9999 BKN028 06/04 Q1019 BLU TEMPO -SHRA SCT015 WHT NW (310°) 10.4mph 6°C 4°C
14/01/19 09:50 EGYM 140950Z 30007KT 9999 SCT040 05/03 Q1019 BLU TEMPO -SHRA SCT015 WHT WNW (300°) 8.1mph 5°C 3°C
14/01/19 08:50 EGYM 140850Z 30009KT 9999 SCT040 04/03 Q1018 BLU NOSIG WNW (300°) 10.4mph 4°C 3°C
14/01/19 07:50 EGYM 140750Z 30010KT 9999 FEW040 04/03 Q1017 BLU TEMPO -SHRA SCT015 WHT WNW (300°) 11.5mph 4°C 3°C
14/01/19 06:50 EGYM 140650Z 30010KT 9999 FEW040 04/03 Q1016 BLU WNW (300°) 11.5mph 4°C 3°C
14/01/19 05:50 EGYM 140550Z 30010KT CAVOK 05/03 Q1015 BLU WNW (300°) 11.5mph 5°C 3°C
14/01/19 04:50 EGYM 140450Z 29011KT CAVOK 05/03 Q1015 BLU WNW (290°) 12.7mph 5°C 3°C
14/01/19 03:50 EGYM 140350Z 29012KT CAVOK 05/03 Q1014 BLU WNW (290°) 13.8mph 5°C 3°C
14/01/19 02:50 EGYM 140250Z 28011KT 9999 FEW040 05/03 Q1013 BLU W (280°) 12.7mph 5°C 3°C
14/01/19 01:50 EGYM 140150Z 29012KT CAVOK 06/03 Q1012 BLU WNW (290°) 13.8mph 6°C 3°C
14/01/19 00:50 EGYM 140050Z 29012KT CAVOK 06/03 Q1012 BLU WNW (290°) 13.8mph 6°C 3°C
13/01/19 23:50 EGYM 132350Z 29014KT CAVOK 06/03 Q1011 BLU WNW (290°) 16.1mph 6°C 3°C
13/01/19 22:50 EGYM 132250Z 29015KT CAVOK 07/04 Q1011 BLU WNW (290°) 17.3mph 7°C 4°C
13/01/19 21:50 EGYM 132150Z 29015KT CAVOK 07/03 Q1010 BLU WNW (290°) 17.3mph 7°C 3°C
13/01/19 20:50 EGYM 132050Z 29014KT CAVOK 07/03 Q1009 BLU WNW (290°) 16.1mph 7°C 3°C
13/01/19 19:50 EGYM 131950Z 30016KT CAVOK 07/03 Q1009 BLU WNW (300°) 18.4mph 7°C 3°C
13/01/19 18:50 EGYM 131850Z AUTO 30018KT 9999 NCD 08/03 Q1009 WNW (300°) 20.7mph 8°C 3°C
13/01/19 17:50 EGYM 131750Z AUTO 30018G28KT 9999 FEW041/// BKN050/// 10/05 Q1008 WNW (300°) 20.7mph 32.2mph 10°C 5°C
13/01/19 16:50 EGYM 131650Z AUTO 29012KT 9999 SCT025/// BKN050/// 10/07 Q1008 RERA WNW (290°) 13.8mph 10°C 7°C
13/01/19 15:50 EGYM 131550Z AUTO 29018G28KT 9999 BKN042/// SCT180/// 11/06 Q1007 RERA WNW (290°) 20.7mph 32.2mph 11°C 6°C
13/01/19 14:50 EGYM 131450Z AUTO 27013KT 9999 BKN026/// BKN035/// 11/08 Q1007 W (270°) 15.0mph 11°C 8°C
13/01/19 13:50 EGYM 131350Z AUTO 26016KT 9999 FEW011/// BKN034/// 10/08 Q1008 W (260°) 18.4mph 10°C 8°C
13/01/19 12:50 EGYM 131250Z AUTO 26017KT 9999 BKN011/// SCT018/// 10/08 Q1008 W (260°) 19.6mph 10°C 8°C
13/01/19 11:50 EGYM 131150Z AUTO 26021KT 9999 FEW017/// BKN027/// 10/07 Q1009 W (260°) 24.2mph 10°C 7°C
13/01/19 10:50 EGYM 131050Z AUTO 27022KT 9999 FEW021/// BKN041/// 11/07 Q1010 W (270°) 25.3mph 11°C 7°C
13/01/19 09:50 EGYM 130950Z AUTO 27020KT 9999 FEW021/// BKN170/// 10/07 Q1010 W (270°) 23.0mph 10°C 7°C
13/01/19 08:50 EGYM 130850Z AUTO 28014KT 9999 OVC021/// 10/07 Q1010 W (280°) 16.1mph 10°C 7°C
13/01/19 07:50 EGYM 130750Z AUTO 27019KT 9999 BKN020/// BKN080/// 10/07 Q1011 RERA W (270°) 21.9mph 10°C 7°C
13/01/19 06:50 EGYM 130650Z AUTO 27013KT 9999 BKN019/// BKN110/// 10/07 Q1011 W (270°) 15.0mph 10°C 7°C
13/01/19 05:50 EGYM 130550Z AUTO 27018KT 9999 OVC100/// 10/07 Q1011 W (270°) 20.7mph 10°C 7°C
13/01/19 04:50 EGYM 130450Z AUTO 28013KT 9999 BKN022/// OVC120/// 10/07 Q1012 W (280°) 15.0mph 10°C 7°C
13/01/19 03:50 EGYM 130350Z AUTO 28018KT 9999 FEW100/// BKN120/// 11/07 Q1012 W (280°) 20.7mph 11°C 7°C
13/01/19 02:50 EGYM 130250Z AUTO 28014KT 9999 FEW023/// BKN080/// 10/07 Q1013 W (280°) 16.1mph 10°C 7°C
13/01/19 01:50 EGYM 130150Z AUTO 27013KT 9999 BKN021/// BKN070/// 10/08 Q1013 W (270°) 15.0mph 10°C 8°C
13/01/19 00:50 EGYM 130050Z AUTO 28015KT 9999 FEW020/// BKN023/// 11/08 Q1014 W (280°) 17.3mph 11°C 8°C
12/01/19 23:50 EGYM 122350Z AUTO 27014KT 9999 OVC018/// 10/08 Q1014 W (270°) 16.1mph 10°C 8°C
12/01/19 22:50 EGYM 122250Z AUTO 27014KT 9999 OVC021/// 10/08 Q1014 RERA W (270°) 16.1mph 10°C 8°C
12/01/19 21:50 EGYM 122150Z AUTO 26013KT 9999 -RA OVC021/// 09/08 Q1015 -RA W (260°) 15.0mph 9°C 8°C
12/01/19 20:50 EGYM 122050Z AUTO 26016KT 9999 OVC021/// 09/07 Q1015 W (260°) 18.4mph 9°C 7°C
12/01/19 19:50 EGYM 121950Z AUTO 26013KT 9999 BKN020/// BKN050/// 08/07 Q1016 W (260°) 15.0mph 8°C 7°C
12/01/19 18:50 EGYM 121850Z AUTO 27013KT 9999 BKN043/// BKN050/// 08/06 Q1016 W (270°) 15.0mph 8°C 6°C
12/01/19 17:50 EGYM 121750Z AUTO 27016KT 9999 FEW011/// BKN045/// 08/06 Q1016 W (270°) 18.4mph 8°C 6°C
12/01/19 16:50 EGYM 121650Z AUTO 28016KT 9999 FEW013/// SCT070/// 08/06 Q1017 W (280°) 18.4mph 8°C 6°C
12/01/19 15:50 EGYM 121550Z AUTO 28016KT 9999 BKN070/// BKN140/// 09/06 Q1017 W (280°) 18.4mph 9°C 6°C
12/01/19 14:50 EGYM 121450Z AUTO 28018KT 9999 BKN080/// BKN150/// 09/06 Q1017 W (280°) 20.7mph 9°C 6°C
12/01/19 13:50 EGYM 121350Z AUTO 27016KT 9999 BKN080/// BKN170/// 09/06 Q1017 W (270°) 18.4mph 9°C 6°C
12/01/19 12:50 EGYM 121250Z AUTO 28014KT 9999 FEW024/// BKN120/// 09/06 Q1018 W (280°) 16.1mph 9°C 6°C
12/01/19 11:50 EGYM 121150Z AUTO 27015KT 9999 OVC100/// 09/07 Q1019 W (270°) 17.3mph 9°C 7°C
12/01/19 10:50 EGYM 121050Z AUTO 26015KT 9999 BKN100/// 09/07 Q1019 W (260°) 17.3mph 9°C 7°C
12/01/19 09:50 EGYM 120950Z AUTO 26017KT 9999 BKN013/// 08/07 Q1019 W (260°) 19.6mph 8°C 7°C
12/01/19 08:50 EGYM 120850Z AUTO 26016KT 9999 SCT035/// SCT060/// BKN170/// 08/07 Q1020 RERA W (260°) 18.4mph 8°C 7°C
12/01/19 07:50 EGYM 120750Z AUTO 26015KT 9999 FEW060/// BKN170/// 07/06 Q1020 W (260°) 17.3mph 7°C 6°C
12/01/19 06:50 EGYM 120650Z AUTO 25011KT 9999 SCT060/// BKN180/// 07/06 Q1021 WSW (250°) 12.7mph 7°C 6°C
12/01/19 05:50 EGYM 120550Z AUTO 24012KT 9999 SCT015/// BKN190/// 07/05 Q1021 WSW (240°) 13.8mph 7°C 5°C
12/01/19 04:50 EGYM 120450Z AUTO 23011KT 9999 FEW018/// BKN027/// BKN240/// 07/05 Q1022 SW (230°) 12.7mph 7°C 5°C
12/01/19 03:50 EGYM 120350Z AUTO 23008KT 9999 BKN023/// BKN027/// 07/05 Q1023 SW (230°) 9.2mph 7°C 5°C
12/01/19 02:50 EGYM 120250Z AUTO 25010KT 9999 OVC027/// 07/05 Q1024 WSW (250°) 11.5mph 7°C 5°C
12/01/19 01:50 EGYM 120150Z AUTO 25010KT 9999 OVC031/// 07/05 Q1025 WSW (250°) 11.5mph 7°C 5°C
12/01/19 00:50 EGYM 120050Z AUTO 24009KT 9999 OVC030/// 06/04 Q1025 WSW (240°) 10.4mph 6°C 4°C
11/01/19 23:50 EGYM 112350Z AUTO 24008KT 9999 OVC031/// 06/04 Q1026 WSW (240°) 9.2mph 6°C 4°C
11/01/19 22:50 EGYM 112250Z AUTO 26009KT 9999 OVC031/// 06/04 Q1027 W (260°) 10.4mph 6°C 4°C
11/01/19 21:50 EGYM 112150Z AUTO 27007KT 9999 OVC032/// 07/03 Q1028 W (270°) 8.1mph 7°C 3°C
11/01/19 20:50 EGYM 112050Z AUTO 26007KT 9999 OVC029/// 06/04 Q1028 W (260°) 8.1mph 6°C 4°C
11/01/19 19:50 EGYM 111950Z AUTO 28008KT 9999 BKN028/// BKN034/// 07/04 Q1028 W (280°) 9.2mph 7°C 4°C
11/01/19 18:50 EGYM 111850Z AUTO 29009KT 9999 OVC033/// 07/04 Q1029 WNW (290°) 10.4mph 7°C 4°C
11/01/19 17:50 EGYM 111750Z AUTO 28007KT 9999 OVC034/// 07/05 Q1028 W (280°) 8.1mph 7°C 5°C
11/01/19 16:50 EGYM 111650Z 30006KT 9999 SCT035 BKN040 07/05 Q1029 BLU WNW (300°) 6.9mph 7°C 5°C
11/01/19 15:50 EGYM 111550Z 31004KT 9999 SCT035 BKN040 07/05 Q1029 BLU NW (310°) 4.6mph 7°C 5°C
11/01/19 14:50 EGYM 111450Z 32006KT 9999 SCT035 BKN040 07/05 Q1029 BLU NW (320°) 6.9mph 7°C 5°C
11/01/19 13:50 EGYM 111350Z 31006KT 9999 SCT035 BKN040 07/05 Q1029 BLU NOSIG NW (310°) 6.9mph 7°C 5°C
11/01/19 12:50 EGYM 111250Z 31007KT 9999 SCT035 BKN040 07/05 Q1029 BLU NOSIG NW (310°) 8.1mph 7°C 5°C
11/01/19 11:50 EGYM 111150Z 31006KT 9999 FEW030 BKN040 08/05 Q1029 BLU NOSIG NW (310°) 6.9mph 8°C 5°C
11/01/19 10:50 EGYM 111050Z 31005KT 9999 FEW035 BKN040 07/05 Q1030 BLU NOSIG NW (310°) 5.8mph 7°C 5°C
11/01/19 09:50 EGYM 110950Z 31004KT 9999 BKN045 06/05 Q1030 BLU NOSIG NW (310°) 4.6mph 6°C 5°C
11/01/19 08:50 EGYM 110850Z 31003KT CAVOK 05/05 Q1029 BLU NOSIG NW (310°) 3.5mph 5°C 5°C
11/01/19 07:50 EGYM 110750Z 31004KT 7000 HZ BKN050 05/04 Q1029 WHT BECMG 9999 BLU HZ NW (310°) 4.6mph 5°C 4°C
11/01/19 06:50 EGYM 110650Z 31004KT 8000 HZ OVC050 05/04 Q1029 BLU HZ NW (310°) 4.6mph 5°C 4°C
11/01/19 05:50 EGYM 110550Z 32006KT 8000 HZ OVC060 05/04 Q1028 BLU HZ NW (320°) 6.9mph 5°C 4°C
11/01/19 04:50 EGYM 110450Z 33005KT 8000 HZ OVC060 06/05 Q1028 BLU HZ NNW (330°) 5.8mph 6°C 5°C
11/01/19 03:50 EGYM 110350Z 32007KT 8000 BR OVC060 06/05 Q1028 REDZ BLU BR NW (320°) 8.1mph 6°C 5°C
11/01/19 02:50 EGYM 110250Z 32007KT 6000 -DZ BKN012 06/05 Q1028 GRN -DZ NW (320°) 8.1mph 6°C 5°C
11/01/19 01:50 EGYM 110150Z 32006KT 6000 BR BKN012 06/06 Q1028 REDZ GRN BR NW (320°) 6.9mph 6°C 6°C
11/01/19 00:50 EGYM 110050Z 33007KT 6000 BR OVC012 07/06 Q1028 REDZ GRN BR NNW (330°) 8.1mph 7°C 6°C
10/01/19 23:50 EGYM 102350Z 33007KT 6000 BR OVC012 07/06 Q1028 GRN BR NNW (330°) 8.1mph 7°C 6°C
10/01/19 22:50 EGYM 102250Z 32006KT 6000 HZ OVC012 07/06 Q1028 GRN HZ NW (320°) 6.9mph 7°C 6°C
10/01/19 21:50 EGYM 102150Z 32006KT 6000 BR FEW010 OVC050 07/06 Q1028 WHT BR NW (320°) 6.9mph 7°C 6°C
10/01/19 20:50 EGYM 102050Z 32005KT 5000 BR FEW010 OVC050 06/05 Q1028 WHT BR NW (320°) 5.8mph 6°C 5°C
10/01/19 19:50 EGYM 101950Z 30002KT 5000 BR OVC010 06/05 Q1028 GRN BR WNW (300°) 2.3mph 6°C 5°C
10/01/19 18:50 EGYM 101850Z 31002KT 5000 BR OVC010 05/04 Q1028 GRN BR NW (310°) 2.3mph 5°C 4°C
10/01/19 17:50 EGYM 101750Z 25003KT 5000 BR OVC008 05/04 Q1028 GRN BR WSW (250°) 3.5mph 5°C 4°C
10/01/19 16:50 EGYM 101650Z 26003KT 8000 HZ OVC008 05/04 Q1028 GRN TEMPO 3000 BR SCT006 HZ W (260°) 3.5mph 5°C 4°C
10/01/19 15:50 EGYM 101550Z 25004KT 9999 OVC012 04/03 Q1028 GRN NOSIG WSW (250°) 4.6mph 4°C 3°C
10/01/19 14:50 EGYM 101450Z 27004KT 9999 OVC017 04/03 Q1028 WHT NOSIG W (270°) 4.6mph 4°C 3°C
10/01/19 13:50 EGYM 101350Z 28006KT 9999 FEW023 OVC030 04/02 Q1029 BLU BECMG SCT022 WHT W (280°) 6.9mph 4°C 2°C
10/01/19 12:50 EGYM 101250Z 27005KT 9999 BKN040 04/02 Q1029 BLU NOSIG W (270°) 5.8mph 4°C 2°C
10/01/19 11:50 EGYM 101150Z 28005KT CAVOK 03/01 Q1030 BLU NOSIG W (280°) 5.8mph 3°C 1°C
10/01/19 10:50 EGYM 101050Z 24004KT CAVOK 03/01 Q1030 BLU NOSIG WSW (240°) 4.6mph 3°C 1°C
10/01/19 09:50 EGYM 100950Z 27003KT CAVOK 02/01 Q1030 BLU NOSIG W (270°) 3.5mph 2°C 1°C
10/01/19 08:50 EGYM 100850Z 30003KT CAVOK 02/01 Q1030 BLU NOSIG WNW (300°) 3.5mph 2°C 1°C
10/01/19 08:27 EGYM 100827Z 29003KT 8000 HZ BKN060 02/01 Q1030 BLU NOSIG HZ WNW (290°) 3.5mph 2°C 1°C
10/01/19 07:50 EGYM 100750Z 26002KT 7000 HZ BKN060 02/01 Q1030 WHT BECMG 9999 SCT040 BLU HZ W (260°) 2.3mph 2°C 1°C
10/01/19 06:50 EGYM 100650Z 32004KT 8000 BR SCT040 BKN100 01/01 Q1030 BLU NOSIG BR NW (320°) 4.6mph 1°C 1°C
10/01/19 05:50 EGYM 100550Z 33005KT 5000 BR FEW100 OVC180 01/01 Q1030 WHT BR NNW (330°) 5.8mph 1°C 1°C
10/01/19 04:50 EGYM 100450Z 30006KT 3500 BR FEW030 OVC160 01/01 Q1029 YLO1 BR WNW (300°) 6.9mph 1°C 1°C